createdAt,value
2022-11-19T00:02:28.094Z,988.21
2022-11-19T00:07:32.296Z,988.35
2022-11-19T00:12:36.486Z,988.31
2022-11-19T00:17:40.595Z,988.49
2022-11-19T00:22:44.719Z,988.52
2022-11-19T00:27:48.890Z,988.57
2022-11-19T00:32:53.078Z,988.67
2022-11-19T00:37:57.262Z,988.77
2022-11-19T00:43:01.416Z,988.79
2022-11-19T00:48:05.571Z,988.85
2022-11-19T00:53:09.728Z,988.88
2022-11-19T00:58:13.883Z,988.94
2022-11-19T01:03:18.040Z,989.10
2022-11-19T01:08:22.236Z,989.18
2022-11-19T01:13:26.387Z,989.36
2022-11-19T01:18:30.521Z,989.55
2022-11-19T01:23:34.768Z,989.79
2022-11-19T01:28:37.246Z,989.91
2022-11-19T01:33:41.154Z,989.99
2022-11-19T01:38:45.285Z,990.10
2022-11-19T01:43:49.485Z,990.18
2022-11-19T01:48:53.615Z,990.13
2022-11-19T01:53:57.803Z,990.25
2022-11-19T01:59:00.097Z,990.38
2022-11-19T02:04:04.287Z,990.48
2022-11-19T02:09:08.438Z,990.46
2022-11-19T02:14:12.558Z,990.55
2022-11-19T02:19:17.089Z,990.60
2022-11-19T02:24:20.903Z,990.61
2022-11-19T02:29:25.037Z,990.67
2022-11-19T02:34:29.257Z,990.88
2022-11-19T02:39:33.383Z,991.00
2022-11-19T02:44:37.571Z,990.99
2022-11-19T02:49:41.716Z,991.07
2022-11-19T02:54:45.870Z,991.14
2022-11-19T02:59:50.039Z,991.10
2022-11-19T03:04:54.242Z,991.19
2022-11-19T03:09:58.354Z,991.14
2022-11-19T03:15:02.538Z,991.12
2022-11-19T03:20:06.708Z,991.07
2022-11-19T03:25:10.859Z,991.17
2022-11-19T03:30:15.042Z,991.21
2022-11-19T03:35:19.198Z,991.23
2022-11-19T03:40:23.381Z,991.27
2022-11-19T03:45:27.544Z,991.24
2022-11-19T03:50:31.682Z,991.28
2022-11-19T03:55:35.852Z,991.42
2022-11-19T04:00:40.014Z,991.44
2022-11-19T04:05:44.183Z,991.53
2022-11-19T04:10:48.350Z,991.64
2022-11-19T04:15:52.532Z,991.64
2022-11-19T04:20:56.687Z,991.75
2022-11-19T04:26:00.851Z,991.89
2022-11-19T04:31:05.022Z,992.02
2022-11-19T04:36:09.188Z,992.07
2022-11-19T04:41:13.361Z,992.23
2022-11-19T04:46:17.504Z,992.33
2022-11-19T04:51:21.681Z,992.46
2022-11-19T04:56:25.847Z,992.44
2022-11-19T05:01:30.043Z,992.57
2022-11-19T05:06:34.167Z,992.81
2022-11-19T05:11:38.297Z,992.83
2022-11-19T05:16:42.497Z,993.01
2022-11-19T05:21:46.648Z,993.05
2022-11-19T05:26:50.816Z,993.26
2022-11-19T05:31:55.007Z,993.36
2022-11-19T05:36:59.138Z,993.38
2022-11-19T05:42:03.336Z,993.44
2022-11-19T05:47:07.464Z,993.49
2022-11-19T05:52:11.653Z,993.56
2022-11-19T05:57:15.826Z,993.52
2022-11-19T06:02:19.970Z,993.65
2022-11-19T06:07:24.314Z,993.73
2022-11-19T06:12:28.297Z,993.72
2022-11-19T06:17:32.436Z,993.75
2022-11-19T06:22:36.621Z,993.84
2022-11-19T06:27:40.811Z,993.98
2022-11-19T06:32:44.963Z,994.02
2022-11-19T06:37:49.110Z,994.19
2022-11-19T06:42:53.286Z,994.33
2022-11-19T06:47:57.464Z,994.32
2022-11-19T06:53:01.619Z,994.56
2022-11-19T06:58:05.786Z,994.71
2022-11-19T07:03:10.036Z,994.91
2022-11-19T07:08:14.135Z,995.03
2022-11-19T07:13:18.293Z,995.08
2022-11-19T07:18:22.442Z,995.23
2022-11-19T07:23:26.603Z,995.26
2022-11-19T07:28:28.903Z,995.28
2022-11-19T07:33:33.084Z,995.49
2022-11-19T07:38:37.357Z,995.68
2022-11-19T07:43:41.374Z,995.83
2022-11-19T07:48:45.514Z,995.98
2022-11-19T07:53:49.732Z,996.05
2022-11-19T07:58:53.886Z,996.05
2022-11-19T08:03:58.053Z,996.08
2022-11-19T08:09:02.258Z,996.20
2022-11-19T08:14:06.366Z,996.12
2022-11-19T08:19:10.543Z,996.19
2022-11-19T08:24:14.684Z,996.35
2022-11-19T08:29:18.868Z,996.64
2022-11-19T08:34:23.272Z,996.82
2022-11-19T08:39:27.187Z,996.99
2022-11-19T08:44:31.381Z,997.31
2022-11-19T08:49:35.517Z,997.38
2022-11-19T08:54:39.709Z,997.53
2022-11-19T08:59:43.891Z,997.63
2022-11-19T09:04:48.013Z,997.83
2022-11-19T09:09:52.183Z,997.94
2022-11-19T09:14:56.386Z,998.26
2022-11-19T09:20:00.524Z,998.46
2022-11-19T09:25:04.728Z,998.53
2022-11-19T09:30:08.863Z,998.58
2022-11-19T09:35:13.028Z,998.68
2022-11-19T09:40:17.198Z,998.74
2022-11-19T09:45:21.361Z,998.83
2022-11-19T09:50:25.527Z,998.91
2022-11-19T09:55:29.733Z,998.97
2022-11-19T10:00:33.866Z,998.98
2022-11-19T10:05:37.997Z,999.12
2022-11-19T10:10:42.217Z,999.33
2022-11-19T10:20:50.512Z,999.44
2022-11-19T10:25:54.700Z,999.57
2022-11-19T10:30:58.808Z,999.70
2022-11-19T10:36:03.085Z,999.87
2022-11-19T10:41:07.396Z,999.81
2022-11-19T10:46:11.340Z,999.76
2022-11-19T10:51:15.493Z,999.91
2022-11-19T11:01:23.911Z,1000.01
2022-11-19T11:06:27.992Z,1000.00
2022-11-19T11:11:32.168Z,999.99
2022-11-19T11:16:37.920Z,1000.06
2022-11-19T11:21:40.500Z,1000.24
2022-11-19T11:26:44.635Z,1000.22
2022-11-19T11:31:48.823Z,1000.26
2022-11-19T11:36:53.030Z,1000.21
2022-11-19T11:42:06.373Z,1000.28
2022-11-19T11:47:01.284Z,1000.22
2022-11-19T11:52:05.474Z,1000.29
2022-11-19T11:57:09.603Z,1000.21
2022-11-19T12:02:13.834Z,1000.26
2022-11-19T12:07:18.020Z,1000.36
2022-11-19T12:12:22.140Z,1000.34
2022-11-19T12:17:26.287Z,1000.30
2022-11-19T12:22:30.555Z,1000.28
2022-11-19T12:27:34.634Z,1000.41
2022-11-19T12:32:38.766Z,1000.23
2022-11-19T12:37:42.929Z,1000.47
2022-11-19T12:42:47.099Z,1000.52
2022-11-19T12:47:51.279Z,1000.41
2022-11-19T12:52:55.460Z,1000.32
2022-11-19T12:57:57.743Z,1000.36
2022-11-19T13:03:01.910Z,1000.31
2022-11-19T13:08:06.060Z,1000.44
2022-11-19T13:13:10.327Z,1000.64
2022-11-19T13:18:14.408Z,1000.51
2022-11-19T13:23:18.531Z,1000.48
2022-11-19T13:28:22.676Z,1000.62
2022-11-19T13:33:26.902Z,1000.63
2022-11-19T13:38:31.009Z,1000.70
2022-11-19T13:43:35.224Z,1000.77
2022-11-19T13:48:39.376Z,1000.76
2022-11-19T13:53:43.511Z,1000.66
2022-11-19T13:58:47.676Z,1000.53
2022-11-19T14:03:51.863Z,1000.52
2022-11-19T14:08:56.049Z,1000.42
2022-11-19T14:14:00.172Z,1000.57
2022-11-19T14:19:04.335Z,1000.64
2022-11-19T14:24:08.562Z,1000.72
2022-11-19T14:29:12.661Z,1000.84
2022-11-19T14:34:16.888Z,1000.90
2022-11-19T14:39:21.118Z,1000.98
2022-11-19T14:44:25.186Z,1000.92
2022-11-19T14:49:29.367Z,1000.85
2022-11-19T14:54:33.780Z,1000.76
2022-11-19T14:59:37.662Z,1000.79
2022-11-19T15:04:41.845Z,1000.66
2022-11-19T15:09:46.034Z,1000.65
2022-11-19T15:14:50.178Z,1000.48
2022-11-19T15:19:54.332Z,1000.56
2022-11-19T15:24:58.488Z,1000.56
2022-11-19T15:30:03.852Z,1000.70
2022-11-19T15:35:11.539Z,1000.78
2022-11-19T15:40:11.011Z,1000.69
2022-11-19T15:45:15.160Z,1000.76
2022-11-19T15:50:19.333Z,1000.78
2022-11-19T15:55:23.483Z,1000.76
2022-11-19T16:00:27.665Z,1000.80
2022-11-19T16:05:31.806Z,1000.68
2022-11-19T16:10:35.970Z,1000.63
2022-11-19T16:15:40.133Z,1000.52
2022-11-19T16:20:44.302Z,1000.48
2022-11-19T16:25:48.463Z,1000.51
2022-11-19T16:30:52.681Z,1000.35
2022-11-19T16:35:56.824Z,1000.17
2022-11-19T16:41:00.977Z,1000.13
2022-11-19T16:46:05.136Z,1000.16
2022-11-19T16:51:09.316Z,1000.14
2022-11-19T16:56:16.761Z,1000.27
2022-11-19T17:01:17.769Z,1000.36
2022-11-19T17:06:21.815Z,1000.39
2022-11-19T17:11:25.965Z,1000.53
2022-11-19T17:16:30.163Z,1000.66
2022-11-19T17:21:34.309Z,1000.68
2022-11-19T17:26:38.477Z,1000.71
2022-11-19T17:31:42.657Z,1000.59
2022-11-19T17:36:46.798Z,1000.51
2022-11-19T17:41:50.973Z,1000.53
2022-11-19T17:46:55.161Z,1000.47
2022-11-19T17:51:59.322Z,1000.48
2022-11-19T17:57:03.470Z,1000.46
2022-11-19T18:02:07.670Z,1000.36
2022-11-19T18:07:11.889Z,1000.27
2022-11-19T18:12:16.006Z,1000.22
2022-11-19T18:17:20.143Z,1000.00
2022-11-19T18:22:24.273Z,999.92
2022-11-19T18:27:26.571Z,999.70
2022-11-19T18:32:30.739Z,999.45
2022-11-19T18:37:34.926Z,999.26
2022-11-19T18:42:39.077Z,999.08
2022-11-19T18:47:43.258Z,999.02
2022-11-19T18:52:47.417Z,998.85
2022-11-19T18:57:49.689Z,998.74
2022-11-19T19:02:53.854Z,998.63
2022-11-19T19:07:57.995Z,998.33
2022-11-19T19:13:02.223Z,998.17
2022-11-19T19:18:07.909Z,998.12
2022-11-19T19:23:10.649Z,998.08
2022-11-19T19:28:14.697Z,997.91
2022-11-19T19:33:18.864Z,997.78
2022-11-19T19:38:23.020Z,997.71
2022-11-19T19:43:27.176Z,997.69
2022-11-19T19:48:31.351Z,997.62
2022-11-19T19:53:35.532Z,997.54
2022-11-19T19:58:39.710Z,997.45
2022-11-19T20:03:43.882Z,997.35
2022-11-19T20:08:48.037Z,997.30
2022-11-19T20:13:52.183Z,997.23
2022-11-19T20:18:56.372Z,997.10
2022-11-19T20:24:00.537Z,997.07
2022-11-19T20:29:04.709Z,996.96
2022-11-19T20:34:08.842Z,996.85
2022-11-19T20:39:13.031Z,996.96
2022-11-19T20:44:17.210Z,996.94
2022-11-19T20:49:21.729Z,996.90
2022-11-19T20:54:25.502Z,996.86
2022-11-19T20:59:29.736Z,996.77
2022-11-19T21:04:33.866Z,996.81
2022-11-19T21:09:38.012Z,996.85
2022-11-19T21:14:42.184Z,996.72
2022-11-19T21:19:46.434Z,996.74
2022-11-19T21:24:50.570Z,996.50
2022-11-19T21:29:54.708Z,996.35
2022-11-19T21:34:58.890Z,996.24
2022-11-19T21:40:03.074Z,996.23
2022-11-19T21:45:07.187Z,996.16
2022-11-19T21:50:11.373Z,996.14
2022-11-19T21:55:15.552Z,996.18
2022-11-19T22:00:22.845Z,996.23
2022-11-19T22:05:24.025Z,996.27
2022-11-19T22:10:28.062Z,996.27
2022-11-19T22:15:32.201Z,996.23
2022-11-19T22:20:36.626Z,996.27
2022-11-19T22:25:40.601Z,996.03
2022-11-19T22:30:44.731Z,995.96
2022-11-19T22:35:48.880Z,995.95
2022-11-19T22:40:53.055Z,995.94
2022-11-19T22:45:57.201Z,995.96
2022-11-19T22:51:01.420Z,996.03
2022-11-19T22:56:05.583Z,995.97
2022-11-19T23:01:09.807Z,995.89
2022-11-19T23:06:13.903Z,995.78
2022-11-19T23:11:18.087Z,995.77
2022-11-19T23:16:22.241Z,995.71
2022-11-19T23:21:26.418Z,995.84
2022-11-19T23:26:30.586Z,995.79
2022-11-19T23:31:34.724Z,995.84
2022-11-19T23:36:38.885Z,995.78
2022-11-19T23:41:43.037Z,995.78
2022-11-19T23:46:47.230Z,995.75
2022-11-19T23:51:51.417Z,995.69
2022-11-19T23:56:55.639Z,995.58
